Arlington, Vermont
Current Conditions -  °F | °C
As of 1:54 PM on Thursday 23 Oct 2014 (Local Time) from KDDH Reporting Station
Overcast Overcast  
Wind Chill:   Ceiling: 1100
Heat Index:   Visibility: 10mi
Dew Point:   Wind: 8mph
Humidity: 86%   Direction: 340°NNW
Pressure: 29.78"   Gusts: NA
Location:  43.07°N, 73.15°W
Report Text: KDDH 231754Z AUTO 34007KT 10SM OVC011 08/06 A2978 RMK AO2 SLP087 60033 T00780056 10078 20061 56011
Loading
Personal Weather Stations






























Interactive Weather Map
Tropical Storm Tracking
New forecast layout! Learn more

10-Day Weather Forecast

Advertisements
Track Severe Weather on mobile